createdAt,value
2022-10-23T08:45:19.421Z,13.00
2022-10-23T08:47:55.901Z,12.80
2022-10-23T08:50:59.709Z,18.00
2022-10-23T08:53:46.994Z,13.50
2022-10-23T08:56:24.580Z,12.80
2022-10-23T08:59:20.639Z,12.80
2022-10-23T09:01:58.736Z,13.50
2022-10-23T09:04:26.716Z,13.70
2022-10-23T09:09:45.353Z,13.80
2022-10-23T09:12:26.143Z,13.60
2022-10-23T09:15:23.314Z,13.80
2022-10-23T09:18:08.009Z,14.30
2022-10-23T09:20:36.455Z,13.00
2022-10-23T09:23:17.704Z,14.60
2022-10-23T09:25:47.763Z,14.20
2022-10-23T09:28:21.308Z,14.50
2022-10-23T09:30:50.476Z,14.50
2022-10-23T09:33:24.742Z,14.70
2022-10-23T09:35:59.213Z,14.30
2022-10-23T09:38:34.818Z,14.50
2022-10-23T09:41:36.567Z,15.20
2022-10-23T09:44:07.426Z,13.70
2022-10-23T09:46:42.558Z,15.00
2022-10-23T09:49:30.797Z,13.80
2022-10-23T09:52:01.575Z,35.60
2022-10-23T09:54:37.206Z,23.00
2022-10-23T09:57:22.261Z,21.70
2022-10-23T09:59:56.373Z,17.10
2022-10-23T10:02:33.189Z,16.60
2022-10-23T10:08:24.796Z,15.00
2022-10-23T10:11:04.847Z,14.90
2022-10-23T10:13:32.672Z,13.70
2022-10-23T10:16:03.954Z,15.00
2022-10-23T10:18:49.286Z,16.80
2022-10-23T10:21:29.007Z,16.10
2022-10-23T10:23:56.887Z,13.90
2022-10-23T10:26:53.156Z,17.30
2022-10-23T10:29:44.329Z,14.70
2022-10-23T10:32:17.609Z,14.10
2022-10-23T10:35:00.634Z,14.40
2022-10-23T10:38:03.233Z,14.40
2022-10-23T10:40:38.439Z,14.20
2022-10-23T10:43:18.625Z,13.40
2022-10-23T10:49:00.390Z,10.40
2022-10-23T10:51:47.442Z,13.40
2022-10-23T10:55:12.850Z,11.70
2022-10-23T10:57:45.735Z,9.80
2022-10-23T11:00:20.814Z,11.00
2022-10-23T11:03:02.914Z,10.00
2022-10-23T11:05:47.000Z,8.90
2022-10-23T11:08:28.233Z,7.70
2022-10-23T11:11:03.119Z,7.90
2022-10-23T11:13:42.690Z,7.50
2022-10-23T11:16:15.684Z,8.50
2022-10-23T11:18:50.605Z,7.30
2022-10-23T11:21:40.763Z,7.80
2022-10-23T11:24:54.571Z,7.00
2022-10-23T11:27:47.744Z,7.50
2022-10-23T11:30:57.295Z,7.10
2022-10-23T11:33:56.267Z,11.50
2022-10-23T11:36:49.570Z,7.80
2022-10-23T11:39:26.464Z,6.80
2022-10-23T11:42:15.854Z,6.50
2022-10-23T11:44:48.608Z,6.10
2022-10-23T11:47:38.891Z,6.50
2022-10-23T11:50:07.261Z,6.00
2022-10-23T11:52:50.391Z,5.00
2022-10-23T11:55:27.428Z,5.40
2022-10-23T11:58:07.332Z,5.60
2022-10-23T12:00:40.906Z,5.00
2022-10-23T12:03:22.760Z,5.50
2022-10-23T12:06:00.659Z,5.40
2022-10-23T12:08:32.547Z,10.40
2022-10-23T12:11:00.632Z,6.70
2022-10-23T12:13:37.757Z,6.80
2022-10-23T12:16:10.015Z,9.30
2022-10-23T12:18:49.447Z,11.30
2022-10-23T12:21:21.201Z,7.60
2022-10-23T12:24:22.720Z,6.80
2022-10-23T12:27:04.576Z,6.90
2022-10-23T12:30:13.130Z,8.10
2022-10-23T12:33:03.185Z,8.40
2022-10-23T12:35:53.204Z,7.90
2022-10-23T12:38:33.844Z,8.00
2022-10-23T12:41:15.156Z,8.30
2022-10-23T12:43:53.763Z,5.30
2022-10-23T12:46:39.959Z,7.50
2022-10-23T12:49:18.784Z,7.20
2022-10-23T12:52:01.735Z,7.30
2022-10-23T12:54:38.560Z,5.90
2022-10-23T12:57:30.635Z,4.90
2022-10-23T13:00:04.794Z,5.50
2022-10-23T13:02:35.013Z,4.90
2022-10-23T13:05:08.221Z,4.90
2022-10-23T13:07:44.875Z,5.20
2022-10-23T13:10:16.798Z,9.60
2022-10-23T13:13:06.019Z,8.50
2022-10-23T13:15:40.080Z,4.50
2022-10-23T13:18:10.201Z,4.30
2022-10-23T13:20:43.062Z,3.30
2022-10-23T13:23:34.315Z,3.60
2022-10-23T13:26:03.378Z,3.40
2022-10-23T13:28:42.402Z,3.50
2022-10-23T13:31:10.181Z,4.20
2022-10-23T13:33:40.789Z,4.40
2022-10-23T13:36:15.072Z,4.10
2022-10-23T13:39:02.412Z,4.30
2022-10-23T13:41:37.647Z,4.00
2022-10-23T13:44:05.967Z,4.20
2022-10-23T13:46:33.840Z,4.90
2022-10-23T13:49:01.945Z,3.70
2022-10-23T13:51:33.571Z,4.70
2022-10-23T13:54:01.634Z,4.10
2022-10-23T13:56:29.788Z,5.10
2022-10-23T13:58:57.727Z,4.30
2022-10-23T14:01:33.026Z,3.70
2022-10-23T14:04:00.994Z,4.20
2022-10-23T14:06:28.852Z,4.20
2022-10-23T14:08:57.440Z,4.00
2022-10-23T14:11:25.667Z,4.30
2022-10-23T14:13:53.470Z,4.50
2022-10-23T14:16:21.759Z,4.00
2022-10-23T14:18:49.929Z,4.70
2022-10-23T14:21:22.639Z,4.10
2022-10-23T14:23:52.218Z,5.30
2022-10-23T14:26:23.629Z,4.50
2022-10-23T14:28:56.903Z,4.70
2022-10-23T14:31:27.034Z,4.70
2022-10-23T14:34:00.884Z,4.90
2022-10-23T14:36:38.520Z,4.80
2022-10-23T14:39:17.471Z,5.00
2022-10-23T14:41:45.240Z,5.30
2022-10-23T14:44:13.130Z,5.20
2022-10-23T14:46:41.000Z,5.50
2022-10-23T14:49:08.961Z,19.40
2022-10-23T14:51:36.899Z,20.10
2022-10-23T14:54:07.275Z,9.20
2022-10-23T14:56:40.757Z,7.20
2022-10-23T14:59:10.900Z,11.40
2022-10-23T15:01:45.069Z,26.10
2022-10-23T15:04:15.674Z,55.20
2022-10-23T15:06:44.309Z,43.40
2022-10-23T15:09:12.162Z,11.00
2022-10-23T15:11:39.966Z,6.60
2022-10-23T15:14:08.421Z,5.20
2022-10-23T15:16:41.535Z,5.70
2022-10-23T15:19:15.468Z,6.50
2022-10-23T15:21:47.875Z,10.40
2022-10-23T15:24:17.449Z,17.20
2022-10-23T15:26:45.510Z,13.20
2022-10-23T15:29:15.020Z,14.20
2022-10-23T15:32:03.498Z,17.10
2022-10-23T15:34:32.654Z,11.60
2022-10-23T15:37:01.938Z,6.40
2022-10-23T15:39:35.724Z,6.90
2022-10-23T15:42:05.578Z,6.90
2022-10-23T15:44:33.964Z,5.50
2022-10-23T15:47:01.846Z,4.70
2022-10-23T15:49:30.079Z,5.10
2022-10-23T15:51:58.673Z,4.50
2022-10-23T15:54:30.542Z,4.50
2022-10-23T15:57:02.545Z,6.70
2022-10-23T15:59:32.455Z,4.90
2022-10-23T16:02:00.662Z,4.70
2022-10-23T16:04:28.816Z,5.10
2022-10-23T16:06:56.973Z,4.90
2022-10-23T16:09:24.816Z,6.40
2022-10-23T16:11:52.621Z,6.90
2022-10-23T16:14:21.290Z,8.50
2022-10-23T16:16:49.151Z,9.70
2022-10-23T16:19:17.187Z,11.30
2022-10-23T16:21:44.999Z,18.60
2022-10-23T16:24:12.870Z,12.60
2022-10-23T16:26:40.726Z,12.40
2022-10-23T16:29:10.024Z,13.60
2022-10-23T16:31:38.060Z,9.80
2022-10-23T16:34:07.182Z,6.10
2022-10-23T16:36:35.312Z,5.60
2022-10-23T16:39:07.657Z,7.70
2022-10-23T16:41:54.318Z,7.30
2022-10-23T16:44:24.606Z,6.80
2022-10-23T16:47:00.260Z,6.80
2022-10-23T16:49:29.930Z,5.80
2022-10-23T16:51:58.280Z,6.70
2022-10-23T16:54:26.143Z,5.90
2022-10-23T16:56:54.054Z,6.90
2022-10-23T16:59:21.849Z,6.30
2022-10-23T17:01:49.780Z,5.90
2022-10-23T17:04:17.741Z,7.10
2022-10-23T17:06:45.611Z,8.70
2022-10-23T17:09:13.466Z,10.50
2022-10-23T17:11:44.251Z,7.90
2022-10-23T17:14:18.228Z,7.40
2022-10-23T17:16:48.571Z,9.10
2022-10-23T17:19:40.039Z,13.40
2022-10-23T17:22:12.678Z,13.90
2022-10-23T17:24:42.178Z,8.70
2022-10-23T17:27:10.003Z,10.80
2022-10-23T17:29:38.507Z,10.70
2022-10-23T17:32:06.452Z,14.00
2022-10-23T17:34:34.592Z,14.00
2022-10-23T17:37:02.628Z,13.80
2022-10-23T17:39:30.616Z,18.20
2022-10-23T17:41:58.487Z,19.90
2022-10-23T17:44:26.295Z,27.80
2022-10-23T17:46:55.331Z,19.40
2022-10-23T17:49:24.593Z,21.10
2022-10-23T17:51:55.138Z,28.90
2022-10-23T17:54:25.050Z,28.70
2022-10-23T17:56:53.134Z,28.40
2022-10-23T17:59:22.108Z,30.30
2022-10-23T18:01:50.387Z,27.40
2022-10-23T18:04:20.871Z,22.00
2022-10-23T18:06:52.635Z,23.00
2022-10-23T18:09:22.624Z,20.40
2022-10-23T18:11:51.842Z,22.00
2022-10-23T18:14:21.593Z,23.00
2022-10-23T18:16:52.603Z,31.20
2022-10-23T18:19:20.717Z,32.70
2022-10-23T18:21:49.250Z,39.70
2022-10-23T18:24:18.113Z,53.80
2022-10-23T18:26:48.278Z,44.10
2022-10-23T18:29:17.779Z,41.60
2022-10-23T18:31:48.223Z,39.30
2022-10-23T18:34:22.780Z,39.00
2022-10-23T18:36:53.286Z,35.30
2022-10-23T18:39:24.203Z,35.10
2022-10-23T18:41:54.820Z,37.00
2022-10-23T18:44:24.474Z,39.40
2022-10-23T18:46:52.414Z,38.10
2022-10-23T18:49:20.492Z,36.50
2022-10-23T18:51:49.957Z,37.90
2022-10-23T18:54:20.425Z,33.80
2022-10-23T18:56:49.541Z,34.50
2022-10-23T18:59:19.572Z,38.40
2022-10-23T19:01:48.029Z,39.60
2022-10-23T19:04:18.061Z,38.60
2022-10-23T19:06:47.658Z,39.30
2022-10-23T19:09:16.351Z,47.40
2022-10-23T19:11:45.375Z,56.40
2022-10-23T19:14:13.174Z,51.60
2022-10-23T19:16:55.981Z,55.90
2022-10-23T19:19:27.686Z,51.00
2022-10-23T19:21:56.454Z,65.40
2022-10-23T19:24:32.065Z,61.60
2022-10-23T19:27:01.994Z,63.20
2022-10-23T19:29:30.627Z,63.40
2022-10-23T19:31:59.049Z,65.30
2022-10-23T19:34:26.849Z,65.50
2022-10-23T19:36:55.096Z,65.30
2022-10-23T19:39:23.506Z,61.30
2022-10-23T19:41:51.825Z,63.00
2022-10-23T19:44:20.562Z,68.00
2022-10-23T19:46:48.744Z,68.10
2022-10-23T19:49:17.546Z,59.60
2022-10-23T19:51:50.881Z,60.70
2022-10-23T19:54:21.069Z,68.40
2022-10-23T19:56:49.537Z,63.70
2022-10-23T19:59:17.986Z,64.00
2022-10-23T20:01:48.173Z,63.60
2022-10-23T20:04:18.588Z,66.10
2022-10-23T20:06:47.329Z,72.30
2022-10-23T20:09:15.759Z,73.90
2022-10-23T20:11:45.338Z,78.30
2022-10-23T20:14:13.663Z,73.40
2022-10-23T20:16:44.902Z,63.90
2022-10-23T20:21:49.666Z,70.20
2022-10-23T20:24:19.491Z,62.50
2022-10-23T20:26:53.612Z,57.20
2022-10-23T20:29:22.398Z,54.00
2022-10-23T20:31:50.235Z,57.90
2022-10-23T20:34:19.243Z,64.90
2022-10-23T20:36:49.449Z,61.50
2022-10-23T20:39:20.828Z,57.70
2022-10-23T20:41:48.627Z,56.50
2022-10-23T20:44:18.432Z,55.50
2022-10-23T20:46:46.557Z,56.30
2022-10-23T20:49:14.957Z,53.20
2022-10-23T20:51:42.879Z,53.00
2022-10-23T20:54:10.878Z,40.90
2022-10-23T20:56:39.874Z,45.20
2022-10-23T20:59:11.371Z,47.50
2022-10-23T21:01:45.281Z,49.00
2022-10-23T21:04:14.008Z,50.70
2022-10-23T21:07:04.456Z,51.50
2022-10-23T21:09:31.006Z,49.50
2022-10-23T21:11:58.756Z,37.60
2022-10-23T21:14:27.309Z,37.20
2022-10-23T21:16:55.074Z,39.20
2022-10-23T21:19:22.912Z,37.30
2022-10-23T21:21:50.950Z,35.60
2022-10-23T21:24:18.864Z,33.40
2022-10-23T21:26:46.873Z,34.40
2022-10-23T21:29:19.438Z,38.30
2022-10-23T21:31:52.837Z,35.90
2022-10-23T21:34:20.618Z,39.10
2022-10-23T21:37:11.230Z,39.60
2022-10-23T21:39:36.774Z,37.70
2022-10-23T21:42:04.611Z,37.70
2022-10-23T21:44:32.357Z,37.40
2022-10-23T21:47:00.053Z,38.30
2022-10-23T21:49:27.867Z,36.10
2022-10-23T21:51:55.599Z,35.20
2022-10-23T21:54:23.309Z,33.10
2022-10-23T21:56:53.621Z,34.00
2022-10-23T21:59:27.685Z,29.50
2022-10-23T22:01:58.157Z,29.70
2022-10-23T22:04:26.034Z,31.90
2022-10-23T22:06:53.906Z,31.40
2022-10-23T22:09:22.018Z,25.90
2022-10-23T22:11:54.207Z,24.40
2022-10-23T22:14:23.885Z,29.10
2022-10-23T22:16:52.318Z,29.30
2022-10-23T22:19:22.261Z,28.90
2022-10-23T22:21:51.348Z,27.20
2022-10-23T22:24:19.779Z,28.50
2022-10-23T22:26:51.204Z,25.90
2022-10-23T22:29:22.586Z,27.30
2022-10-23T22:31:51.008Z,26.90
2022-10-23T22:34:28.726Z,25.60
2022-10-23T22:37:11.408Z,28.10
2022-10-23T22:39:40.282Z,25.40
2022-10-23T22:42:08.728Z,24.80
2022-10-23T22:44:36.460Z,23.50
2022-10-23T22:47:04.585Z,23.10
2022-10-23T22:49:32.369Z,21.80
2022-10-23T22:52:00.416Z,23.30
2022-10-23T22:54:30.583Z,24.50
2022-10-23T22:56:58.438Z,26.80
2022-10-23T22:59:26.320Z,27.00
2022-10-23T23:01:54.557Z,24.90
2022-10-23T23:04:38.929Z,22.40
2022-10-23T23:07:10.120Z,23.00
2022-10-23T23:09:43.684Z,22.40
2022-10-23T23:12:14.041Z,20.60
2022-10-23T23:14:42.691Z,19.50
2022-10-23T23:17:10.748Z,20.90
2022-10-23T23:19:39.388Z,21.80
2022-10-23T23:22:07.146Z,20.00
2022-10-23T23:24:35.000Z,19.80
2022-10-23T23:27:02.832Z,19.70
2022-10-23T23:29:32.017Z,17.60
2022-10-23T23:31:59.774Z,16.90
2022-10-23T23:34:27.556Z,17.80
2022-10-23T23:36:55.268Z,16.70
2022-10-23T23:39:23.008Z,15.00
2022-10-23T23:41:50.805Z,16.40
2022-10-23T23:44:18.512Z,15.50
2022-10-23T23:46:46.237Z,14.90
2022-10-23T23:49:13.938Z,14.90
2022-10-23T23:51:42.052Z,14.10
2022-10-23T23:54:09.999Z,15.00
2022-10-23T23:56:38.159Z,15.10
2022-10-23T23:59:05.935Z,14.70
